createdAt,value
2022-11-12T00:01:12.267Z,90.77
2022-11-12T00:03:41.778Z,90.87
2022-11-12T00:06:09.721Z,90.97
2022-11-12T00:08:37.710Z,90.44
2022-11-12T00:11:06.174Z,90.18
2022-11-12T00:13:34.382Z,90.17
2022-11-12T00:16:02.301Z,90.31
2022-11-12T00:18:30.508Z,90.64
2022-11-12T00:20:59.790Z,90.52
2022-11-12T00:23:27.621Z,90.33
2022-11-12T00:26:01.920Z,90.34
2022-11-12T00:28:34.766Z,90.43
2022-11-12T00:31:10.034Z,90.12
2022-11-12T00:33:41.208Z,90.26
2022-11-12T00:36:11.047Z,89.89
2022-11-12T00:38:38.972Z,90.06
2022-11-12T00:41:07.009Z,89.97
2022-11-12T00:43:35.147Z,89.94
2022-11-12T00:46:03.103Z,89.74
2022-11-12T00:48:30.928Z,89.77
2022-11-12T00:51:03.387Z,89.76
2022-11-12T00:53:32.918Z,89.75
2022-11-12T00:56:05.092Z,89.78
2022-11-12T00:58:34.828Z,89.61
2022-11-12T01:01:08.275Z,89.52
2022-11-12T01:03:36.407Z,89.65
2022-11-12T01:06:05.634Z,89.44
2022-11-12T01:08:35.384Z,89.39
2022-11-12T01:11:08.334Z,89.45
2022-11-12T01:13:41.329Z,89.48
2022-11-12T01:16:14.159Z,89.33
2022-11-12T01:18:43.123Z,89.34
2022-11-12T01:21:11.517Z,89.23
2022-11-12T01:23:42.503Z,89.38
2022-11-12T01:26:12.235Z,89.13
2022-11-12T01:28:40.826Z,88.93
2022-11-12T01:31:14.057Z,89.23
2022-11-12T01:33:42.089Z,89.14
2022-11-12T01:36:11.296Z,89.05
2022-11-12T01:38:42.240Z,89.10
2022-11-12T01:41:12.553Z,89.15
2022-11-12T01:43:40.811Z,89.13
2022-11-12T01:46:15.676Z,88.99
2022-11-12T01:48:49.591Z,88.86
2022-11-12T01:51:17.837Z,88.98
2022-11-12T01:53:51.331Z,89.00
2022-11-12T01:56:21.414Z,88.97
2022-11-12T01:58:53.619Z,89.07
2022-11-12T02:01:21.747Z,88.89
2022-11-12T02:03:49.831Z,88.98
2022-11-12T02:06:18.703Z,89.19
2022-11-12T02:08:49.540Z,89.10
2022-11-12T02:11:19.871Z,89.35
2022-11-12T02:14:01.411Z,89.34
2022-11-12T02:16:33.803Z,89.38
2022-11-12T02:19:02.212Z,89.48
2022-11-12T02:21:31.770Z,89.29
2022-11-12T02:24:01.889Z,89.62
2022-11-12T02:26:34.393Z,89.40
2022-11-12T02:29:02.622Z,89.48
2022-11-12T02:31:30.654Z,89.61
2022-11-12T02:34:00.110Z,89.83
2022-11-12T02:36:28.430Z,89.70
2022-11-12T02:38:57.857Z,90.15
2022-11-12T02:41:26.167Z,90.36
2022-11-12T02:43:54.195Z,90.35
2022-11-12T02:46:22.133Z,90.43
2022-11-12T02:48:50.280Z,90.60
2022-11-12T02:51:18.245Z,90.71
2022-11-12T02:53:46.131Z,90.84
2022-11-12T02:56:15.582Z,90.88
2022-11-12T02:58:43.556Z,90.87
2022-11-12T03:01:11.580Z,91.07
2022-11-12T03:03:39.616Z,91.09
2022-11-12T03:06:08.436Z,91.13
2022-11-12T03:08:36.275Z,91.11
2022-11-12T03:11:08.390Z,91.44
2022-11-12T03:13:38.181Z,91.52
2022-11-12T03:16:06.316Z,91.62
2022-11-12T03:18:34.475Z,91.69
2022-11-12T03:21:02.679Z,91.89
2022-11-12T03:23:30.675Z,91.84
2022-11-12T03:25:58.944Z,91.78
2022-11-12T03:28:27.389Z,92.06
2022-11-12T03:31:00.624Z,92.05
2022-11-12T03:33:28.600Z,92.02
2022-11-12T03:35:56.549Z,92.03
2022-11-12T03:38:25.091Z,92.02
2022-11-12T03:40:53.171Z,91.98
2022-11-12T03:43:21.209Z,91.53
2022-11-12T03:45:49.096Z,91.52
2022-11-12T03:48:18.385Z,91.35
2022-11-12T03:50:46.474Z,91.39
2022-11-12T03:53:14.359Z,91.35
2022-11-12T03:55:42.648Z,91.27
2022-11-12T03:58:10.560Z,91.35
2022-11-12T04:00:38.521Z,91.40
2022-11-12T04:03:06.445Z,91.28
2022-11-12T04:05:53.367Z,91.15
2022-11-12T04:08:38.787Z,91.08
2022-11-12T04:11:09.426Z,91.05
2022-11-12T04:13:38.681Z,91.16
2022-11-12T04:16:26.566Z,91.13
2022-11-12T04:19:13.570Z,90.80
2022-11-12T04:21:55.124Z,90.73
2022-11-12T04:24:42.978Z,91.00
2022-11-12T04:27:12.779Z,91.06
2022-11-12T04:29:58.058Z,90.97
2022-11-12T04:32:26.797Z,91.03
2022-11-12T04:34:54.959Z,91.04
2022-11-12T04:37:25.818Z,91.12
2022-11-12T04:39:54.766Z,91.02
2022-11-12T04:42:40.205Z,90.94
2022-11-12T04:45:10.055Z,90.95
2022-11-12T04:47:39.617Z,91.02
2022-11-12T04:50:09.814Z,90.96
2022-11-12T04:52:39.925Z,91.19
2022-11-12T04:55:08.514Z,91.34
2022-11-12T04:57:36.616Z,91.42
2022-11-12T05:00:06.041Z,91.45
2022-11-12T05:02:34.028Z,91.57
2022-11-12T05:05:01.911Z,91.41
2022-11-12T05:07:30.059Z,91.49
2022-11-12T05:09:59.380Z,91.60
2022-11-12T05:12:27.347Z,91.67
2022-11-12T05:14:55.458Z,91.97
2022-11-12T05:17:23.419Z,92.01
2022-11-12T05:19:51.278Z,92.22
2022-11-12T05:22:42.098Z,92.14
2022-11-12T05:25:09.932Z,92.04
2022-11-12T05:27:38.113Z,92.26
2022-11-12T05:30:07.936Z,92.39
2022-11-12T05:32:35.963Z,92.45
2022-11-12T05:35:04.311Z,92.71
2022-11-12T05:37:32.259Z,92.94
2022-11-12T05:40:00.259Z,93.03
2022-11-12T05:42:29.799Z,93.19
2022-11-12T05:44:57.654Z,93.42
2022-11-12T05:47:25.518Z,93.40
2022-11-12T05:49:53.600Z,93.65
2022-11-12T05:52:21.432Z,93.78
2022-11-12T05:54:49.306Z,94.05
2022-11-12T05:57:17.386Z,94.46
2022-11-12T05:59:46.755Z,94.53
2022-11-12T06:02:14.639Z,94.82
2022-11-12T06:04:42.909Z,95.04
2022-11-12T06:07:11.129Z,95.07
2022-11-12T06:09:39.157Z,95.16
2022-11-12T06:12:08.542Z,95.53
2022-11-12T06:14:36.664Z,95.38
2022-11-12T06:17:06.109Z,95.84
2022-11-12T06:19:34.177Z,95.76
2022-11-12T06:22:02.313Z,95.99
2022-11-12T06:24:34.959Z,96.27
2022-11-12T06:27:03.892Z,96.21
2022-11-12T06:29:31.931Z,96.55
2022-11-12T06:31:59.981Z,96.77
2022-11-12T06:34:29.543Z,96.83
2022-11-12T06:36:57.384Z,97.02
2022-11-12T06:39:25.228Z,97.07
2022-11-12T06:41:54.024Z,97.07
2022-11-12T06:44:22.513Z,97.34
2022-11-12T06:46:50.515Z,97.30
2022-11-12T06:49:18.682Z,97.88
2022-11-12T06:51:48.003Z,97.65
2022-11-12T06:54:15.934Z,97.92
2022-11-12T06:56:43.965Z,97.93
2022-11-12T06:59:12.012Z,98.08
2022-11-12T07:01:39.969Z,98.01
2022-11-12T07:04:08.135Z,98.35
2022-11-12T07:06:36.122Z,98.21
2022-11-12T07:09:06.247Z,98.18
2022-11-12T07:11:34.416Z,98.12
2022-11-12T07:14:02.231Z,98.25
2022-11-12T07:16:30.063Z,98.10
2022-11-12T07:18:58.091Z,98.10
2022-11-12T07:21:26.221Z,98.18
2022-11-12T07:23:54.255Z,98.25
2022-11-12T07:26:25.509Z,98.10
2022-11-12T07:28:56.525Z,98.20
2022-11-12T07:31:25.867Z,98.10
2022-11-12T07:33:55.199Z,98.31
2022-11-12T07:36:23.358Z,98.21
2022-11-12T07:38:53.245Z,98.01
2022-11-12T07:41:24.403Z,97.93
2022-11-12T07:43:54.191Z,97.92
2022-11-12T07:46:24.454Z,97.78
2022-11-12T07:48:52.941Z,97.62
2022-11-12T07:51:22.801Z,97.38
2022-11-12T07:53:57.757Z,97.42
2022-11-12T07:56:29.636Z,97.59
2022-11-12T07:58:57.568Z,98.11
2022-11-12T08:01:30.451Z,98.55
2022-11-12T08:03:58.565Z,97.81
2022-11-12T08:06:26.949Z,96.85
2022-11-12T08:08:55.415Z,96.75
2022-11-12T08:11:23.663Z,96.83
2022-11-12T08:13:53.414Z,96.71
2022-11-12T08:16:21.661Z,96.49
2022-11-12T08:18:49.613Z,95.84
2022-11-12T08:21:18.786Z,94.25
2022-11-12T08:23:47.403Z,93.62
2022-11-12T08:26:17.486Z,92.16
2022-11-12T08:28:45.516Z,91.48
2022-11-12T08:31:17.263Z,91.10
2022-11-12T08:33:45.292Z,90.96
2022-11-12T08:36:15.252Z,89.15
2022-11-12T08:38:43.687Z,89.37
2022-11-12T08:41:13.799Z,87.55
2022-11-12T08:43:42.819Z,87.80
2022-11-12T08:46:11.267Z,87.82
2022-11-12T08:48:41.370Z,86.87
2022-11-12T08:51:09.503Z,86.21
2022-11-12T08:53:37.734Z,85.38
2022-11-12T08:56:05.942Z,85.17
2022-11-12T08:58:33.794Z,84.58
2022-11-12T09:01:05.825Z,83.69
2022-11-12T09:03:33.668Z,83.37
2022-11-12T09:06:06.066Z,82.29
2022-11-12T09:08:36.270Z,82.21
2022-11-12T09:11:05.316Z,82.39
2022-11-12T09:13:34.077Z,81.58
2022-11-12T09:16:03.775Z,80.95
2022-11-12T09:18:32.487Z,80.96
2022-11-12T09:21:07.210Z,79.60
2022-11-12T09:23:35.705Z,79.16
2022-11-12T09:26:04.465Z,79.30
2022-11-12T09:28:33.083Z,78.52
2022-11-12T09:31:01.346Z,77.84
2022-11-12T09:33:32.790Z,77.95
2022-11-12T09:36:02.554Z,77.29
2022-11-12T09:38:32.159Z,76.91
2022-11-12T09:41:14.099Z,76.33
2022-11-12T09:43:47.702Z,75.52
2022-11-12T09:46:28.298Z,75.61
2022-11-12T09:49:03.750Z,75.66
2022-11-12T09:51:35.020Z,75.33
2022-11-12T09:54:14.715Z,74.86
2022-11-12T09:56:42.838Z,75.30
2022-11-12T09:59:13.697Z,73.78
2022-11-12T10:01:56.013Z,74.09
2022-11-12T10:04:44.460Z,74.37
2022-11-12T10:07:22.430Z,74.71
2022-11-12T10:10:02.578Z,75.43
2022-11-12T10:12:41.085Z,76.18
2022-11-12T10:15:54.148Z,76.97
2022-11-12T10:18:31.928Z,77.25
2022-11-12T10:21:07.583Z,77.32
2022-11-12T10:23:42.643Z,77.17
2022-11-12T10:26:16.623Z,76.81
2022-11-12T10:28:49.164Z,76.70
2022-11-12T10:31:19.177Z,76.88
2022-11-12T10:33:47.430Z,77.09
2022-11-12T10:36:27.845Z,77.13
2022-11-12T10:38:56.358Z,77.30
2022-11-12T10:41:28.482Z,77.50
2022-11-12T10:43:58.997Z,77.77
2022-11-12T10:46:29.175Z,77.93
2022-11-12T10:49:02.856Z,78.25
2022-11-12T10:51:33.480Z,78.50
2022-11-12T10:54:19.936Z,78.44
2022-11-12T10:56:55.031Z,78.57
2022-11-12T10:59:24.235Z,79.10
2022-11-12T11:01:56.728Z,79.08
2022-11-12T11:04:31.759Z,79.30
2022-11-12T11:07:01.727Z,79.26
2022-11-12T11:09:29.855Z,79.18
2022-11-12T11:11:59.502Z,79.37
2022-11-12T11:14:31.826Z,79.11
2022-11-12T11:17:01.756Z,79.03
2022-11-12T11:19:36.888Z,79.15
2022-11-12T11:22:27.474Z,79.26
2022-11-12T11:25:17.720Z,79.19
2022-11-12T11:27:59.013Z,79.43
2022-11-12T11:30:27.204Z,79.58
2022-11-12T11:33:20.001Z,79.69
2022-11-12T11:35:56.265Z,79.74
2022-11-12T11:38:36.019Z,79.62
2022-11-12T11:41:30.421Z,79.68
2022-11-12T11:44:13.796Z,79.81
2022-11-12T11:46:56.000Z,79.56
2022-11-12T11:49:50.632Z,79.79
2022-11-12T11:52:36.984Z,79.60
2022-11-12T11:55:16.628Z,79.44
2022-11-12T11:57:56.603Z,78.92
2022-11-12T12:00:31.288Z,78.60
2022-11-12T12:03:17.855Z,77.55
2022-11-12T12:05:55.753Z,77.19
2022-11-12T12:08:36.430Z,76.91
2022-11-12T12:11:11.965Z,76.71
2022-11-12T12:13:56.442Z,76.30
2022-11-12T12:16:37.335Z,76.17
2022-11-12T12:19:12.570Z,76.18
2022-11-12T12:21:45.914Z,76.21
2022-11-12T12:24:20.044Z,76.27
2022-11-12T12:26:51.769Z,75.70
2022-11-12T12:29:26.392Z,75.35
2022-11-12T12:32:02.834Z,75.14
2022-11-12T12:34:34.425Z,75.30
2022-11-12T12:37:11.680Z,75.74
2022-11-12T12:39:49.097Z,75.84
2022-11-12T12:42:23.760Z,76.00
2022-11-12T12:45:02.131Z,76.19
2022-11-12T12:47:36.706Z,76.40
2022-11-12T12:50:12.076Z,76.37
2022-11-12T12:53:02.986Z,76.40
2022-11-12T12:55:40.349Z,76.43
2022-11-12T12:58:19.370Z,76.63
2022-11-12T13:00:52.132Z,76.85
2022-11-12T13:03:50.876Z,76.84
2022-11-12T13:06:27.568Z,77.09
2022-11-12T13:08:59.079Z,77.42
2022-11-12T13:12:07.994Z,77.71
2022-11-12T13:15:11.554Z,77.75
2022-11-12T13:17:53.012Z,77.76
2022-11-12T13:20:41.202Z,77.72
2022-11-12T13:24:10.939Z,77.92
2022-11-12T13:26:46.527Z,78.04
2022-11-12T13:29:39.849Z,77.94
2022-11-12T13:32:34.948Z,78.26
2022-11-12T13:35:22.524Z,78.41
2022-11-12T13:37:54.908Z,78.57
2022-11-12T13:40:37.435Z,78.83
2022-11-12T13:43:11.184Z,78.89
2022-11-12T13:45:47.130Z,78.86
2022-11-12T13:48:18.611Z,79.00
2022-11-12T13:50:53.050Z,79.31
2022-11-12T13:53:26.562Z,79.33
2022-11-12T13:55:56.048Z,79.36
2022-11-12T13:58:31.462Z,79.45
2022-11-12T14:01:01.512Z,79.40
2022-11-12T14:03:33.136Z,79.57
2022-11-12T14:06:06.751Z,79.73
2022-11-12T14:09:04.325Z,80.07
2022-11-12T14:11:52.637Z,79.99
2022-11-12T14:14:30.370Z,80.23
2022-11-12T14:17:10.146Z,80.53
2022-11-12T14:20:09.408Z,80.39
2022-11-12T14:22:41.469Z,80.77
2022-11-12T14:25:18.936Z,81.02
2022-11-12T14:27:47.596Z,80.93
2022-11-12T14:30:22.138Z,81.14
2022-11-12T14:32:53.354Z,81.43
2022-11-12T14:35:37.517Z,81.55
2022-11-12T14:38:15.546Z,81.66
2022-11-12T14:40:52.620Z,81.78
2022-11-12T14:43:28.163Z,82.34
2022-11-12T14:45:59.103Z,82.41
2022-11-12T14:48:27.711Z,82.70
2022-11-12T14:51:04.231Z,82.96
2022-11-12T14:53:38.461Z,83.11
2022-11-12T14:56:10.742Z,83.09
2022-11-12T14:58:40.746Z,83.37
2022-11-12T15:02:03.816Z,83.51
2022-11-12T15:04:20.853Z,83.48
2022-11-12T15:06:58.625Z,83.44
2022-11-12T15:09:35.317Z,83.87
2022-11-12T15:12:06.720Z,83.61
2022-11-12T15:14:35.421Z,83.85
2022-11-12T15:17:05.625Z,84.00
2022-11-12T15:19:34.084Z,84.36
2022-11-12T15:22:04.088Z,84.38
2022-11-12T15:24:33.583Z,84.52
2022-11-12T15:27:24.373Z,84.68
2022-11-12T15:30:09.749Z,84.49
2022-11-12T15:32:37.821Z,84.55
2022-11-12T15:35:06.527Z,84.78
2022-11-12T15:37:43.595Z,84.92
2022-11-12T15:40:14.227Z,84.57
2022-11-12T15:42:43.741Z,84.74
2022-11-12T15:45:17.416Z,85.07
2022-11-12T15:47:46.032Z,85.44
2022-11-12T15:50:17.300Z,85.29
2022-11-12T15:52:45.585Z,85.42
2022-11-12T15:55:13.926Z,85.23
2022-11-12T15:57:44.164Z,85.62
2022-11-12T16:00:19.403Z,85.95
2022-11-12T16:02:50.140Z,85.87
2022-11-12T16:05:19.677Z,85.59
2022-11-12T16:07:47.721Z,86.00
2022-11-12T16:10:17.299Z,85.78
2022-11-12T16:12:47.459Z,86.02
2022-11-12T16:15:19.496Z,86.05
2022-11-12T16:17:48.025Z,86.17
2022-11-12T16:20:18.763Z,86.22
2022-11-12T16:22:46.678Z,86.00
2022-11-12T16:25:14.790Z,86.16
2022-11-12T16:27:42.859Z,86.49
2022-11-12T16:30:18.544Z,86.78
2022-11-12T16:32:48.077Z,86.83
2022-11-12T16:35:16.411Z,87.55
2022-11-12T16:37:45.181Z,87.66
2022-11-12T16:40:15.568Z,87.77
2022-11-12T16:42:45.814Z,87.78
2022-11-12T16:45:14.490Z,87.99
2022-11-12T16:47:46.964Z,88.22
2022-11-12T16:50:16.782Z,88.38
2022-11-12T16:52:44.687Z,88.38
2022-11-12T16:55:12.655Z,88.79
2022-11-12T16:57:41.471Z,88.75
2022-11-12T17:00:12.972Z,89.11
2022-11-12T17:02:45.307Z,89.55
2022-11-12T17:05:20.742Z,89.72
2022-11-12T17:07:48.865Z,89.42
2022-11-12T17:10:23.437Z,89.70
2022-11-12T17:12:51.867Z,89.78
2022-11-12T17:15:20.166Z,90.32
2022-11-12T17:17:48.348Z,90.56
2022-11-12T17:20:17.911Z,90.93
2022-11-12T17:22:45.782Z,91.19
2022-11-12T17:25:13.939Z,91.39
2022-11-12T17:27:42.276Z,91.42
2022-11-12T17:30:12.019Z,91.32
2022-11-12T17:32:40.103Z,91.80
2022-11-12T17:35:08.877Z,92.09
2022-11-12T17:37:38.184Z,92.03
2022-11-12T17:40:07.798Z,92.23
2022-11-12T17:42:35.711Z,92.31
2022-11-12T17:45:03.641Z,92.29
2022-11-12T17:47:33.049Z,92.62
2022-11-12T17:50:03.661Z,92.44
2022-11-12T17:52:31.641Z,92.63
2022-11-12T17:55:00.987Z,92.99
2022-11-12T17:57:29.119Z,92.91
2022-11-12T17:59:56.985Z,93.48
2022-11-12T18:02:25.379Z,93.49
2022-11-12T18:04:53.498Z,93.57
2022-11-12T18:07:21.436Z,93.20
2022-11-12T18:09:49.630Z,93.61
2022-11-12T18:12:18.943Z,94.02
2022-11-12T18:14:47.001Z,93.84
2022-11-12T18:17:15.583Z,93.82
2022-11-12T18:19:43.545Z,93.67
2022-11-12T18:22:14.957Z,93.97
2022-11-12T18:24:43.409Z,93.69
2022-11-12T18:27:11.379Z,93.83
2022-11-12T18:29:41.673Z,94.04
2022-11-12T18:32:09.884Z,94.27
2022-11-12T18:34:44.579Z,94.19
2022-11-12T18:37:12.867Z,94.51
2022-11-12T18:39:41.030Z,94.59
2022-11-12T18:42:09.060Z,95.00
2022-11-12T18:44:37.009Z,95.17
2022-11-12T18:47:06.445Z,95.27
2022-11-12T18:49:34.288Z,95.50
2022-11-12T18:52:02.223Z,95.71
2022-11-12T18:54:31.215Z,95.71
2022-11-12T18:56:59.119Z,96.10
2022-11-12T18:59:31.084Z,96.13
2022-11-12T19:01:59.161Z,96.23
2022-11-12T19:04:28.500Z,96.36
2022-11-12T19:06:56.592Z,96.67
2022-11-12T19:09:24.665Z,96.70
2022-11-12T19:11:52.514Z,96.79
2022-11-12T19:14:20.502Z,96.70
2022-11-12T19:16:48.525Z,97.48
2022-11-12T19:19:28.815Z,97.27
2022-11-12T19:21:58.666Z,97.55
2022-11-12T19:24:26.536Z,97.05
2022-11-12T19:26:55.856Z,97.54
2022-11-12T19:29:23.800Z,97.37
2022-11-12T19:31:51.687Z,97.37
2022-11-12T19:34:19.561Z,97.56
2022-11-12T19:36:48.456Z,97.52
2022-11-12T19:39:22.411Z,97.58
2022-11-12T19:41:50.490Z,97.56
2022-11-12T19:44:18.394Z,97.80
2022-11-12T19:46:46.373Z,97.82
2022-11-12T19:49:14.453Z,98.08
2022-11-12T19:51:42.470Z,98.08
2022-11-12T19:54:10.458Z,98.33
2022-11-12T19:56:39.921Z,98.31
2022-11-12T19:59:07.912Z,98.38
2022-11-12T20:01:35.806Z,98.52
2022-11-12T20:04:04.027Z,98.57
2022-11-12T20:06:31.970Z,98.64
2022-11-12T20:09:00.027Z,98.59
2022-11-12T20:11:28.119Z,98.87
2022-11-12T20:13:57.529Z,98.98
2022-11-12T20:16:26.183Z,99.03
2022-11-12T20:18:55.608Z,99.33
2022-11-12T20:21:23.547Z,99.46
2022-11-12T20:23:51.439Z,99.51
2022-11-12T20:26:19.452Z,99.54
2022-11-12T20:28:47.352Z,99.64
2022-11-12T20:31:20.819Z,99.54
2022-11-12T20:33:49.982Z,99.82
2022-11-12T20:36:20.601Z,99.75
2022-11-12T20:38:50.264Z,100.00
2022-11-12T20:41:20.372Z,100.00
2022-11-12T20:43:48.389Z,100.00
2022-11-12T20:46:18.104Z,100.00
2022-11-12T20:48:46.090Z,100.00
2022-11-12T20:51:25.398Z,100.00
2022-11-12T20:53:59.433Z,100.00
2022-11-12T20:56:30.051Z,100.00
2022-11-12T20:58:59.146Z,100.00
2022-11-12T21:01:29.806Z,100.00
2022-11-12T21:03:58.990Z,100.00
2022-11-12T21:06:29.386Z,100.00
2022-11-12T21:08:59.338Z,100.00
2022-11-12T21:11:27.412Z,100.00
2022-11-12T21:13:55.677Z,100.00
2022-11-12T21:16:23.500Z,100.00
2022-11-12T21:18:52.738Z,100.00
2022-11-12T21:21:21.530Z,100.00
2022-11-12T21:23:51.040Z,100.00
2022-11-12T21:26:21.025Z,100.00
2022-11-12T21:28:51.070Z,100.00
2022-11-12T21:31:20.724Z,100.00
2022-11-12T21:33:50.663Z,100.00
2022-11-12T21:36:20.346Z,100.00
2022-11-12T21:38:49.062Z,100.00
2022-11-12T21:41:18.926Z,100.00
2022-11-12T21:43:47.241Z,100.00
2022-11-12T21:46:17.286Z,100.00
2022-11-12T21:48:45.999Z,100.00
2022-11-12T21:51:15.878Z,100.00
2022-11-12T21:53:45.700Z,100.00
2022-11-12T21:56:15.646Z,100.00
2022-11-12T21:58:43.868Z,100.00
2022-11-12T22:01:15.097Z,100.00
2022-11-12T22:03:43.187Z,100.00
2022-11-12T22:06:12.209Z,100.00
2022-11-12T22:08:40.695Z,100.00
2022-11-12T22:11:13.503Z,100.00
2022-11-12T22:13:42.549Z,100.00
2022-11-12T22:16:13.005Z,100.00
2022-11-12T22:18:41.470Z,100.00
2022-11-12T22:21:12.302Z,100.00
2022-11-12T22:23:40.581Z,100.00
2022-11-12T22:26:13.262Z,100.00
2022-11-12T22:28:41.682Z,100.00
2022-11-12T22:31:12.423Z,100.00
2022-11-12T22:33:40.429Z,100.00
2022-11-12T22:36:10.825Z,100.00
2022-11-12T22:38:40.540Z,100.00
2022-11-12T22:41:10.416Z,100.00
2022-11-12T22:43:39.733Z,100.00
2022-11-12T22:46:08.942Z,100.00
2022-11-12T22:48:37.135Z,100.00
2022-11-12T22:51:07.066Z,100.00
2022-11-12T22:53:35.514Z,100.00
2022-11-12T22:56:04.258Z,100.00
2022-11-12T22:58:32.272Z,100.00
2022-11-12T23:01:01.631Z,100.00
2022-11-12T23:03:31.792Z,100.00
2022-11-12T23:06:00.195Z,100.00
2022-11-12T23:08:28.497Z,100.00
2022-11-12T23:10:57.188Z,100.00
2022-11-12T23:13:27.002Z,100.00
2022-11-12T23:15:55.122Z,100.00
2022-11-12T23:18:24.577Z,100.00
2022-11-12T23:20:52.841Z,100.00
2022-11-12T23:23:20.725Z,100.00
2022-11-12T23:25:48.794Z,100.00
2022-11-12T23:28:16.655Z,100.00
2022-11-12T23:30:50.522Z,100.00
2022-11-12T23:33:18.453Z,100.00
2022-11-12T23:35:47.701Z,100.00
2022-11-12T23:38:15.933Z,100.00
2022-11-12T23:40:43.934Z,100.00
2022-11-12T23:43:11.816Z,100.00
2022-11-12T23:45:39.827Z,100.00
2022-11-12T23:48:07.767Z,100.00
2022-11-12T23:50:35.707Z,100.00
2022-11-12T23:53:05.369Z,100.00
2022-11-12T23:55:38.260Z,100.00
2022-11-12T23:58:07.009Z,100.00
